sensor_id;sensor_type;location;lat;lon;timestamp;P1;durP1;ratioP1;P2;durP2;ratioP2
5876;SDS011;2964;42.144;24.730;2022-09-03T00:02:23;26.60;;;22.63;;
5876;SDS011;2964;42.144;24.730;2022-09-03T00:04:57;24.47;;;21.97;;
5876;SDS011;2964;42.144;24.730;2022-09-03T00:07:33;23.63;;;20.67;;
5876;SDS011;2964;42.144;24.730;2022-09-03T00:10:07;24.43;;;19.37;;
5876;SDS011;2964;42.144;24.730;2022-09-03T00:12:37;23.03;;;19.43;;
5876;SDS011;2964;42.144;24.730;2022-09-03T00:15:09;21.83;;;19.03;;
5876;SDS011;2964;42.144;24.730;2022-09-03T00:17:38;26.63;;;20.90;;
5876;SDS011;2964;42.144;24.730;2022-09-03T00:20:09;23.00;;;21.00;;
5876;SDS011;2964;42.144;24.730;2022-09-03T00:22:40;27.33;;;22.50;;
5876;SDS011;2964;42.144;24.730;2022-09-03T00:25:20;33.47;;;24.07;;
5876;SDS011;2964;42.144;24.730;2022-09-03T00:27:50;30.50;;;24.77;;
5876;SDS011;2964;42.144;24.730;2022-09-03T00:30:20;29.40;;;24.80;;
5876;SDS011;2964;42.144;24.730;2022-09-03T00:32:49;28.33;;;24.83;;
5876;SDS011;2964;42.144;24.730;2022-09-03T00:35:22;29.13;;;25.63;;
5876;SDS011;2964;42.144;24.730;2022-09-03T00:37:53;33.37;;;28.20;;
5876;SDS011;2964;42.144;24.730;2022-09-03T00:43:17;35.50;;;27.53;;
5876;SDS011;2964;42.144;24.730;2022-09-03T00:45:52;36.40;;;29.77;;
5876;SDS011;2964;42.144;24.730;2022-09-03T00:48:31;34.00;;;29.23;;
5876;SDS011;2964;42.144;24.730;2022-09-03T00:51:09;39.03;;;30.87;;
5876;SDS011;2964;42.144;24.730;2022-09-03T00:53:51;38.73;;;30.63;;
5876;SDS011;2964;42.144;24.730;2022-09-03T00:56:29;56.40;;;30.77;;
5876;SDS011;2964;42.144;24.730;2022-09-03T00:59:11;38.27;;;31.77;;
5876;SDS011;2964;42.144;24.730;2022-09-03T01:01:48;40.17;;;30.90;;
5876;SDS011;2964;42.144;24.730;2022-09-03T01:04:27;40.73;;;31.57;;
5876;SDS011;2964;42.144;24.730;2022-09-03T01:07:01;34.70;;;28.90;;
5876;SDS011;2964;42.144;24.730;2022-09-03T01:09:43;35.33;;;30.20;;
5876;SDS011;2964;42.144;24.730;2022-09-03T01:12:19;40.77;;;29.53;;
5876;SDS011;2964;42.144;24.730;2022-09-03T01:14:59;37.57;;;29.93;;
5876;SDS011;2964;42.144;24.730;2022-09-03T01:17:35;39.70;;;30.77;;
5876;SDS011;2964;42.144;24.730;2022-09-03T01:20:19;40.17;;;30.87;;
5876;SDS011;2964;42.144;24.730;2022-09-03T01:23:14;40.40;;;31.40;;
5876;SDS011;2964;42.144;24.730;2022-09-03T01:26:23;37.30;;;31.03;;
5876;SDS011;2964;42.144;24.730;2022-09-03T01:28:58;36.30;;;30.07;;
5876;SDS011;2964;42.144;24.730;2022-09-03T01:31:33;36.27;;;30.03;;
5876;SDS011;2964;42.144;24.730;2022-09-03T01:34:09;41.17;;;28.63;;
5876;SDS011;2964;42.144;24.730;2022-09-03T01:36:46;36.87;;;27.93;;
5876;SDS011;2964;42.144;24.730;2022-09-03T01:39:24;32.00;;;27.73;;
5876;SDS011;2964;42.144;24.730;2022-09-03T01:42:00;40.70;;;28.67;;
5876;SDS011;2964;42.144;24.730;2022-09-03T01:44:54;38.37;;;29.00;;
5876;SDS011;2964;42.144;24.730;2022-09-03T01:47:54;38.20;;;28.97;;
5876;SDS011;2964;42.144;24.730;2022-09-03T01:50:33;35.33;;;29.00;;
5876;SDS011;2964;42.144;24.730;2022-09-03T01:53:09;35.23;;;28.13;;
5876;SDS011;2964;42.144;24.730;2022-09-03T01:55:50;32.90;;;26.60;;
5876;SDS011;2964;42.144;24.730;2022-09-03T01:58:30;27.80;;;24.90;;
5876;SDS011;2964;42.144;24.730;2022-09-03T02:01:04;28.10;;;24.17;;
5876;SDS011;2964;42.144;24.730;2022-09-03T02:03:40;30.47;;;25.80;;
5876;SDS011;2964;42.144;24.730;2022-09-03T02:06:10;31.87;;;24.03;;
5876;SDS011;2964;42.144;24.730;2022-09-03T02:08:37;29.10;;;25.03;;
5876;SDS011;2964;42.144;24.730;2022-09-03T02:11:06;28.37;;;24.83;;
5876;SDS011;2964;42.144;24.730;2022-09-03T02:13:36;29.30;;;23.83;;
5876;SDS011;2964;42.144;24.730;2022-09-03T02:16:09;27.73;;;23.33;;
5876;SDS011;2964;42.144;24.730;2022-09-03T02:18:40;28.90;;;22.10;;
5876;SDS011;2964;42.144;24.730;2022-09-03T02:21:11;27.63;;;23.80;;
5876;SDS011;2964;42.144;24.730;2022-09-03T02:23:41;24.50;;;22.03;;
5876;SDS011;2964;42.144;24.730;2022-09-03T02:26:09;26.77;;;22.60;;
5876;SDS011;2964;42.144;24.730;2022-09-03T02:28:38;24.00;;;21.47;;
5876;SDS011;2964;42.144;24.730;2022-09-03T02:31:06;27.43;;;22.70;;
5876;SDS011;2964;42.144;24.730;2022-09-03T02:33:34;29.00;;;22.27;;
5876;SDS011;2964;42.144;24.730;2022-09-03T02:36:04;25.80;;;22.97;;
5876;SDS011;2964;42.144;24.730;2022-09-03T02:38:32;29.70;;;24.27;;
5876;SDS011;2964;42.144;24.730;2022-09-03T02:40:59;27.60;;;22.53;;
5876;SDS011;2964;42.144;24.730;2022-09-03T02:43:29;27.27;;;21.63;;
5876;SDS011;2964;42.144;24.730;2022-09-03T02:46:00;27.70;;;23.03;;
5876;SDS011;2964;42.144;24.730;2022-09-03T02:48:31;26.53;;;22.37;;
5876;SDS011;2964;42.144;24.730;2022-09-03T02:50:58;24.27;;;21.27;;
5876;SDS011;2964;42.144;24.730;2022-09-03T02:53:25;33.20;;;21.27;;
5876;SDS011;2964;42.144;24.730;2022-09-03T02:55:56;26.33;;;22.30;;
5876;SDS011;2964;42.144;24.730;2022-09-03T02:58:23;24.87;;;21.80;;
5876;SDS011;2964;42.144;24.730;2022-09-03T03:00:50;23.13;;;20.83;;
5876;SDS011;2964;42.144;24.730;2022-09-03T03:03:17;26.40;;;21.10;;
5876;SDS011;2964;42.144;24.730;2022-09-03T03:05:46;24.30;;;21.57;;
5876;SDS011;2964;42.144;24.730;2022-09-03T03:08:16;24.33;;;20.87;;
5876;SDS011;2964;42.144;24.730;2022-09-03T03:10:45;24.57;;;21.90;;
5876;SDS011;2964;42.144;24.730;2022-09-03T03:13:13;23.40;;;21.03;;
5876;SDS011;2964;42.144;24.730;2022-09-03T03:15:40;22.53;;;20.27;;
5876;SDS011;2964;42.144;24.730;2022-09-03T03:18:08;24.23;;;20.60;;
5876;SDS011;2964;42.144;24.730;2022-09-03T03:20:36;23.20;;;19.77;;
5876;SDS011;2964;42.144;24.730;2022-09-03T03:23:04;26.27;;;20.17;;
5876;SDS011;2964;42.144;24.730;2022-09-03T03:25:32;25.20;;;18.40;;
5876;SDS011;2964;42.144;24.730;2022-09-03T03:27:59;22.40;;;20.00;;
5876;SDS011;2964;42.144;24.730;2022-09-03T03:30:25;23.77;;;19.77;;
5876;SDS011;2964;42.144;24.730;2022-09-03T03:32:52;26.83;;;19.67;;
5876;SDS011;2964;42.144;24.730;2022-09-03T03:35:20;24.00;;;20.53;;
5876;SDS011;2964;42.144;24.730;2022-09-03T03:37:47;29.93;;;19.80;;
5876;SDS011;2964;42.144;24.730;2022-09-03T03:40:15;26.13;;;19.93;;
5876;SDS011;2964;42.144;24.730;2022-09-03T03:42:42;21.80;;;19.33;;
5876;SDS011;2964;42.144;24.730;2022-09-03T03:45:09;24.50;;;19.90;;
5876;SDS011;2964;42.144;24.730;2022-09-03T03:47:36;21.03;;;18.77;;
5876;SDS011;2964;42.144;24.730;2022-09-03T03:50:03;21.83;;;19.53;;
5876;SDS011;2964;42.144;24.730;2022-09-03T03:52:30;26.47;;;18.87;;
5876;SDS011;2964;42.144;24.730;2022-09-03T03:54:57;20.90;;;17.70;;
5876;SDS011;2964;42.144;24.730;2022-09-03T03:57:28;22.13;;;18.57;;
5876;SDS011;2964;42.144;24.730;2022-09-03T03:59:57;22.90;;;18.97;;
5876;SDS011;2964;42.144;24.730;2022-09-03T04:02:24;28.60;;;19.57;;
5876;SDS011;2964;42.144;24.730;2022-09-03T04:04:50;24.73;;;20.40;;
5876;SDS011;2964;42.144;24.730;2022-09-03T04:07:17;21.87;;;18.10;;
5876;SDS011;2964;42.144;24.730;2022-09-03T04:09:44;25.47;;;18.47;;
5876;SDS011;2964;42.144;24.730;2022-09-03T04:12:11;22.43;;;18.70;;
5876;SDS011;2964;42.144;24.730;2022-09-03T04:14:39;19.57;;;17.57;;
5876;SDS011;2964;42.144;24.730;2022-09-03T04:17:06;19.57;;;15.83;;
5876;SDS011;2964;42.144;24.730;2022-09-03T04:19:32;20.60;;;15.70;;
5876;SDS011;2964;42.144;24.730;2022-09-03T04:21:59;17.00;;;15.27;;
5876;SDS011;2964;42.144;24.730;2022-09-03T04:24:27;16.60;;;14.67;;
5876;SDS011;2964;42.144;24.730;2022-09-03T04:26:53;23.93;;;14.73;;
5876;SDS011;2964;42.144;24.730;2022-09-03T04:29:20;17.27;;;13.93;;
5876;SDS011;2964;42.144;24.730;2022-09-03T04:31:48;16.87;;;14.00;;
5876;SDS011;2964;42.144;24.730;2022-09-03T04:34:33;16.63;;;14.17;;
5876;SDS011;2964;42.144;24.730;2022-09-03T04:36:59;15.53;;;12.27;;
5876;SDS011;2964;42.144;24.730;2022-09-03T04:39:26;17.10;;;12.53;;
5876;SDS011;2964;42.144;24.730;2022-09-03T04:41:53;15.43;;;11.60;;
5876;SDS011;2964;42.144;24.730;2022-09-03T04:44:19;13.10;;;11.97;;
5876;SDS011;2964;42.144;24.730;2022-09-03T04:46:46;12.33;;;11.13;;
5876;SDS011;2964;42.144;24.730;2022-09-03T04:49:15;11.70;;;10.73;;
5876;SDS011;2964;42.144;24.730;2022-09-03T04:51:41;11.03;;;9.90;;
5876;SDS011;2964;42.144;24.730;2022-09-03T04:54:08;10.63;;;9.80;;
5876;SDS011;2964;42.144;24.730;2022-09-03T04:56:37;16.40;;;10.27;;
5876;SDS011;2964;42.144;24.730;2022-09-03T04:59:05;9.70;;;8.90;;
5876;SDS011;2964;42.144;24.730;2022-09-03T05:01:33;9.87;;;9.07;;
5876;SDS011;2964;42.144;24.730;2022-09-03T05:04:02;9.57;;;8.60;;
5876;SDS011;2964;42.144;24.730;2022-09-03T05:06:30;15.33;;;9.90;;
5876;SDS011;2964;42.144;24.730;2022-09-03T05:08:59;9.53;;;8.70;;
5876;SDS011;2964;42.144;24.730;2022-09-03T05:11:27;9.50;;;8.70;;
5876;SDS011;2964;42.144;24.730;2022-09-03T05:13:54;11.30;;;9.27;;
5876;SDS011;2964;42.144;24.730;2022-09-03T05:16:23;8.87;;;8.07;;
5876;SDS011;2964;42.144;24.730;2022-09-03T05:18:52;9.00;;;8.13;;
5876;SDS011;2964;42.144;24.730;2022-09-03T05:21:20;7.60;;;6.77;;
5876;SDS011;2964;42.144;24.730;2022-09-03T05:23:49;10.57;;;8.67;;
5876;SDS011;2964;42.144;24.730;2022-09-03T05:26:18;8.77;;;7.75;;
5876;SDS011;2964;42.144;24.730;2022-09-03T05:28:46;7.43;;;6.00;;
5876;SDS011;2964;42.144;24.730;2022-09-03T05:31:14;7.05;;;6.35;;
5876;SDS011;2964;42.144;24.730;2022-09-03T05:33:42;10.13;;;6.65;;
5876;SDS011;2964;42.144;24.730;2022-09-03T05:36:11;6.68;;;5.93;;
5876;SDS011;2964;42.144;24.730;2022-09-03T05:38:40;7.30;;;6.15;;
5876;SDS011;2964;42.144;24.730;2022-09-03T05:41:08;5.97;;;5.68;;
5876;SDS011;2964;42.144;24.730;2022-09-03T05:43:36;7.22;;;5.88;;
5876;SDS011;2964;42.144;24.730;2022-09-03T05:46:04;8.18;;;5.85;;
5876;SDS011;2964;42.144;24.730;2022-09-03T05:48:33;6.32;;;5.72;;
5876;SDS011;2964;42.144;24.730;2022-09-03T05:51:01;10.40;;;6.10;;
5876;SDS011;2964;42.144;24.730;2022-09-03T05:53:29;9.93;;;6.60;;
5876;SDS011;2964;42.144;24.730;2022-09-03T05:55:58;6.88;;;6.38;;
5876;SDS011;2964;42.144;24.730;2022-09-03T05:58:30;8.73;;;6.35;;
5876;SDS011;2964;42.144;24.730;2022-09-03T06:00:57;6.20;;;5.70;;
5876;SDS011;2964;42.144;24.730;2022-09-03T06:03:24;7.28;;;6.13;;
5876;SDS011;2964;42.144;24.730;2022-09-03T06:05:51;10.90;;;6.43;;
5876;SDS011;2964;42.144;24.730;2022-09-03T06:08:34;6.75;;;6.35;;
5876;SDS011;2964;42.144;24.730;2022-09-03T06:11:03;7.22;;;6.53;;
5876;SDS011;2964;42.144;24.730;2022-09-03T06:13:45;7.32;;;6.82;;
5876;SDS011;2964;42.144;24.730;2022-09-03T06:16:19;7.63;;;6.18;;
5876;SDS011;2964;42.144;24.730;2022-09-03T06:18:48;9.60;;;6.70;;
5876;SDS011;2964;42.144;24.730;2022-09-03T06:21:15;7.53;;;7.13;;
5876;SDS011;2964;42.144;24.730;2022-09-03T06:23:48;6.80;;;6.38;;
5876;SDS011;2964;42.144;24.730;2022-09-03T06:26:20;7.40;;;6.88;;
5876;SDS011;2964;42.144;24.730;2022-09-03T06:28:55;7.55;;;6.85;;
5876;SDS011;2964;42.144;24.730;2022-09-03T06:31:44;7.85;;;7.10;;
5876;SDS011;2964;42.144;24.730;2022-09-03T06:34:23;7.47;;;6.90;;
5876;SDS011;2964;42.144;24.730;2022-09-03T06:36:57;7.47;;;6.78;;
5876;SDS011;2964;42.144;24.730;2022-09-03T06:39:24;7.85;;;6.70;;
5876;SDS011;2964;42.144;24.730;2022-09-03T06:42:12;8.27;;;7.55;;
5876;SDS011;2964;42.144;24.730;2022-09-03T06:44:45;8.27;;;7.72;;
5876;SDS011;2964;42.144;24.730;2022-09-03T06:47:14;8.38;;;7.78;;
5876;SDS011;2964;42.144;24.730;2022-09-03T06:49:41;8.27;;;7.47;;
5876;SDS011;2964;42.144;24.730;2022-09-03T06:52:16;13.32;;;7.45;;
5876;SDS011;2964;42.144;24.730;2022-09-03T06:54:54;8.68;;;8.07;;
5876;SDS011;2964;42.144;24.730;2022-09-03T06:57:21;8.65;;;8.10;;
5876;SDS011;2964;42.144;24.730;2022-09-03T06:59:53;7.45;;;6.82;;
5876;SDS011;2964;42.144;24.730;2022-09-03T07:02:20;11.02;;;7.78;;
5876;SDS011;2964;42.144;24.730;2022-09-03T07:04:47;7.97;;;7.18;;
5876;SDS011;2964;42.144;24.730;2022-09-03T07:07:14;9.40;;;7.03;;
5876;SDS011;2964;42.144;24.730;2022-09-03T07:09:41;8.00;;;7.43;;
5876;SDS011;2964;42.144;24.730;2022-09-03T07:12:08;11.45;;;7.05;;
5876;SDS011;2964;42.144;24.730;2022-09-03T07:14:36;8.20;;;7.40;;
5876;SDS011;2964;42.144;24.730;2022-09-03T07:17:07;7.55;;;6.78;;
5876;SDS011;2964;42.144;24.730;2022-09-03T07:22:57;7.07;;;6.68;;
5876;SDS011;2964;42.144;24.730;2022-09-03T07:25:38;7.82;;;7.15;;
5876;SDS011;2964;42.144;24.730;2022-09-03T07:28:08;6.90;;;6.50;;
5876;SDS011;2964;42.144;24.730;2022-09-03T07:30:59;7.00;;;6.38;;
5876;SDS011;2964;42.144;24.730;2022-09-03T07:33:33;7.55;;;7.05;;
5876;SDS011;2964;42.144;24.730;2022-09-03T07:36:06;6.80;;;6.38;;
5876;SDS011;2964;42.144;24.730;2022-09-03T07:38:39;7.63;;;6.63;;
5876;SDS011;2964;42.144;24.730;2022-09-03T07:41:13;6.75;;;6.35;;
5876;SDS011;2964;42.144;24.730;2022-09-03T07:43:43;7.28;;;6.38;;
5876;SDS011;2964;42.144;24.730;2022-09-03T07:46:25;6.22;;;5.72;;
5876;SDS011;2964;42.144;24.730;2022-09-03T07:48:54;5.38;;;4.90;;
5876;SDS011;2964;42.144;24.730;2022-09-03T07:51:23;5.75;;;5.22;;
5876;SDS011;2964;42.144;24.730;2022-09-03T07:53:53;6.82;;;5.13;;
5876;SDS011;2964;42.144;24.730;2022-09-03T07:56:21;5.35;;;5.00;;
5876;SDS011;2964;42.144;24.730;2022-09-03T07:58:49;6.07;;;5.78;;
5876;SDS011;2964;42.144;24.730;2022-09-03T08:01:16;6.18;;;4.93;;
5876;SDS011;2964;42.144;24.730;2022-09-03T08:03:44;5.95;;;5.65;;
5876;SDS011;2964;42.144;24.730;2022-09-03T08:06:17;5.80;;;5.25;;
5876;SDS011;2964;42.144;24.730;2022-09-03T08:08:54;6.50;;;5.88;;
5876;SDS011;2964;42.144;24.730;2022-09-03T08:11:23;6.53;;;5.82;;
5876;SDS011;2964;42.144;24.730;2022-09-03T08:13:53;6.70;;;6.30;;
5876;SDS011;2964;42.144;24.730;2022-09-03T08:16:25;9.13;;;6.40;;
5876;SDS011;2964;42.144;24.730;2022-09-03T08:18:52;6.57;;;5.97;;
5876;SDS011;2964;42.144;24.730;2022-09-03T08:21:22;6.30;;;5.90;;
5876;SDS011;2964;42.144;24.730;2022-09-03T08:23:50;6.18;;;5.78;;
5876;SDS011;2964;42.144;24.730;2022-09-03T08:26:19;8.85;;;6.13;;
5876;SDS011;2964;42.144;24.730;2022-09-03T08:28:47;6.60;;;6.20;;
5876;SDS011;2964;42.144;24.730;2022-09-03T08:31:14;7.03;;;6.63;;
5876;SDS011;2964;42.144;24.730;2022-09-03T08:33:43;6.95;;;6.43;;
5876;SDS011;2964;42.144;24.730;2022-09-03T08:36:12;7.20;;;6.80;;
5876;SDS011;2964;42.144;24.730;2022-09-03T08:38:42;8.52;;;7.75;;
5876;SDS011;2964;42.144;24.730;2022-09-03T08:41:11;7.30;;;6.72;;
5876;SDS011;2964;42.144;24.730;2022-09-03T08:46:38;7.75;;;7.15;;
5876;SDS011;2964;42.144;24.730;2022-09-03T08:49:12;8.20;;;7.63;;
5876;SDS011;2964;42.144;24.730;2022-09-03T08:51:41;10.48;;;7.18;;
5876;SDS011;2964;42.144;24.730;2022-09-03T08:54:13;8.20;;;7.65;;
5876;SDS011;2964;42.144;24.730;2022-09-03T08:56:41;8.25;;;7.70;;
5876;SDS011;2964;42.144;24.730;2022-09-03T08:59:08;9.05;;;7.05;;
5876;SDS011;2964;42.144;24.730;2022-09-03T09:01:39;7.38;;;6.97;;
5876;SDS011;2964;42.144;24.730;2022-09-03T09:04:20;7.47;;;6.95;;
5876;SDS011;2964;42.144;24.730;2022-09-03T09:06:57;7.65;;;7.05;;
5876;SDS011;2964;42.144;24.730;2022-09-03T09:09:34;8.23;;;7.68;;
5876;SDS011;2964;42.144;24.730;2022-09-03T09:12:09;7.80;;;7.20;;
5876;SDS011;2964;42.144;24.730;2022-09-03T09:14:43;7.07;;;6.60;;
5876;SDS011;2964;42.144;24.730;2022-09-03T09:17:22;7.70;;;7.07;;
5876;SDS011;2964;42.144;24.730;2022-09-03T09:20:03;6.93;;;6.35;;
5876;SDS011;2964;42.144;24.730;2022-09-03T09:22:36;7.43;;;6.82;;
5876;SDS011;2964;42.144;24.730;2022-09-03T09:25:08;7.38;;;6.53;;
5876;SDS011;2964;42.144;24.730;2022-09-03T09:27:40;7.15;;;6.75;;
5876;SDS011;2964;42.144;24.730;2022-09-03T09:30:16;7.10;;;6.45;;
5876;SDS011;2964;42.144;24.730;2022-09-03T09:32:43;6.78;;;6.28;;
5876;SDS011;2964;42.144;24.730;2022-09-03T09:35:11;8.10;;;7.38;;
5876;SDS011;2964;42.144;24.730;2022-09-03T09:37:45;7.53;;;6.93;;
5876;SDS011;2964;42.144;24.730;2022-09-03T09:40:23;8.32;;;7.63;;
5876;SDS011;2964;42.144;24.730;2022-09-03T09:43:07;7.82;;;7.28;;
5876;SDS011;2964;42.144;24.730;2022-09-03T09:45:36;8.88;;;7.30;;
5876;SDS011;2964;42.144;24.730;2022-09-03T09:48:07;7.88;;;7.20;;
5876;SDS011;2964;42.144;24.730;2022-09-03T09:50:38;6.68;;;6.18;;
5876;SDS011;2964;42.144;24.730;2022-09-03T09:53:06;7.90;;;7.38;;
5876;SDS011;2964;42.144;24.730;2022-09-03T09:55:52;9.32;;;8.60;;
5876;SDS011;2964;42.144;24.730;2022-09-03T09:58:21;7.18;;;6.75;;
5876;SDS011;2964;42.144;24.730;2022-09-03T10:01:02;7.65;;;7.15;;
5876;SDS011;2964;42.144;24.730;2022-09-03T10:03:38;7.10;;;6.55;;
5876;SDS011;2964;42.144;24.730;2022-09-03T10:06:18;6.68;;;6.20;;
5876;SDS011;2964;42.144;24.730;2022-09-03T10:09:07;7.25;;;6.68;;
5876;SDS011;2964;42.144;24.730;2022-09-03T10:11:37;7.15;;;6.65;;
5876;SDS011;2964;42.144;24.730;2022-09-03T10:14:12;6.93;;;6.35;;
5876;SDS011;2964;42.144;24.730;2022-09-03T10:16:46;7.78;;;7.07;;
5876;SDS011;2964;42.144;24.730;2022-09-03T10:19:22;7.10;;;6.70;;
5876;SDS011;2964;42.144;24.730;2022-09-03T10:22:00;8.30;;;7.63;;
5876;SDS011;2964;42.144;24.730;2022-09-03T10:24:35;8.60;;;7.80;;
5876;SDS011;2964;42.144;24.730;2022-09-03T10:27:10;7.70;;;7.10;;
5876;SDS011;2964;42.144;24.730;2022-09-03T10:29:40;13.73;;;11.90;;
5876;SDS011;2964;42.144;24.730;2022-09-03T10:32:10;8.23;;;7.65;;
5876;SDS011;2964;42.144;24.730;2022-09-03T10:34:51;12.52;;;9.05;;
5876;SDS011;2964;42.144;24.730;2022-09-03T10:37:28;10.70;;;9.80;;
5876;SDS011;2964;42.144;24.730;2022-09-03T10:40:10;7.72;;;7.22;;
5876;SDS011;2964;42.144;24.730;2022-09-03T10:42:47;7.32;;;6.93;;
5876;SDS011;2964;42.144;24.730;2022-09-03T10:45:22;9.45;;;7.20;;
5876;SDS011;2964;42.144;24.730;2022-09-03T10:48:07;9.18;;;7.53;;
5876;SDS011;2964;42.144;24.730;2022-09-03T10:51:00;9.23;;;8.48;;
5876;SDS011;2964;42.144;24.730;2022-09-03T10:53:50;8.43;;;7.63;;
5876;SDS011;2964;42.144;24.730;2022-09-03T10:56:27;8.57;;;7.78;;
5876;SDS011;2964;42.144;24.730;2022-09-03T10:59:06;8.98;;;7.95;;
5876;SDS011;2964;42.144;24.730;2022-09-03T11:01:46;8.73;;;8.10;;
5876;SDS011;2964;42.144;24.730;2022-09-03T11:04:23;8.10;;;7.45;;
5876;SDS011;2964;42.144;24.730;2022-09-03T11:06:57;7.82;;;7.22;;
5876;SDS011;2964;42.144;24.730;2022-09-03T11:09:28;8.63;;;7.95;;
5876;SDS011;2964;42.144;24.730;2022-09-03T11:12:03;7.47;;;7.07;;
5876;SDS011;2964;42.144;24.730;2022-09-03T11:14:34;9.05;;;8.38;;
5876;SDS011;2964;42.144;24.730;2022-09-03T11:17:06;7.63;;;7.22;;
5876;SDS011;2964;42.144;24.730;2022-09-03T11:19:36;8.55;;;7.85;;
5876;SDS011;2964;42.144;24.730;2022-09-03T11:22:12;8.52;;;7.93;;
5876;SDS011;2964;42.144;24.730;2022-09-03T11:24:42;8.05;;;7.28;;
5876;SDS011;2964;42.144;24.730;2022-09-03T11:27:16;8.98;;;7.65;;
5876;SDS011;2964;42.144;24.730;2022-09-03T11:29:54;7.50;;;7.00;;
5876;SDS011;2964;42.144;24.730;2022-09-03T11:32:28;7.55;;;7.03;;
5876;SDS011;2964;42.144;24.730;2022-09-03T11:35:12;6.28;;;5.88;;
5876;SDS011;2964;42.144;24.730;2022-09-03T11:37:44;7.43;;;6.78;;
5876;SDS011;2964;42.144;24.730;2022-09-03T11:40:17;6.38;;;5.95;;
5876;SDS011;2964;42.144;24.730;2022-09-03T11:42:46;6.70;;;6.20;;
5876;SDS011;2964;42.144;24.730;2022-09-03T11:45:21;6.07;;;5.68;;
5876;SDS011;2964;42.144;24.730;2022-09-03T11:47:58;5.53;;;5.22;;
5876;SDS011;2964;42.144;24.730;2022-09-03T11:50:26;5.88;;;5.40;;
5876;SDS011;2964;42.144;24.730;2022-09-03T11:53:05;4.90;;;4.55;;
5876;SDS011;2964;42.144;24.730;2022-09-03T11:55:45;5.28;;;4.85;;
5876;SDS011;2964;42.144;24.730;2022-09-03T11:58:21;6.65;;;4.70;;
5876;SDS011;2964;42.144;24.730;2022-09-03T12:00:53;4.20;;;3.90;;
5876;SDS011;2964;42.144;24.730;2022-09-03T12:03:22;4.97;;;4.43;;
5876;SDS011;2964;42.144;24.730;2022-09-03T12:05:58;4.25;;;3.95;;
5876;SDS011;2964;42.144;24.730;2022-09-03T12:11:47;5.10;;;4.72;;
5876;SDS011;2964;42.144;24.730;2022-09-03T12:14:24;5.85;;;5.45;;
5876;SDS011;2964;42.144;24.730;2022-09-03T12:17:05;4.95;;;4.75;;
5876;SDS011;2964;42.144;24.730;2022-09-03T12:19:44;5.63;;;4.35;;
5876;SDS011;2964;42.144;24.730;2022-09-03T12:22:16;5.55;;;4.05;;
5876;SDS011;2964;42.144;24.730;2022-09-03T12:24:43;4.40;;;4.10;;
5876;SDS011;2964;42.144;24.730;2022-09-03T12:27:11;4.18;;;3.85;;
5876;SDS011;2964;42.144;24.730;2022-09-03T12:29:49;4.35;;;3.97;;
5876;SDS011;2964;42.144;24.730;2022-09-03T12:32:26;3.85;;;3.53;;
5876;SDS011;2964;42.144;24.730;2022-09-03T12:34:54;3.95;;;3.67;;
5876;SDS011;2964;42.144;24.730;2022-09-03T12:37:21;3.38;;;3.20;;
5876;SDS011;2964;42.144;24.730;2022-09-03T12:39:50;4.28;;;3.90;;
5876;SDS011;2964;42.144;24.730;2022-09-03T12:42:19;3.90;;;3.70;;
5876;SDS011;2964;42.144;24.730;2022-09-03T12:44:48;4.18;;;3.65;;
5876;SDS011;2964;42.144;24.730;2022-09-03T12:47:16;4.60;;;4.10;;
5876;SDS011;2964;42.144;24.730;2022-09-03T12:49:46;3.88;;;3.67;;
5876;SDS011;2964;42.144;24.730;2022-09-03T12:52:15;3.33;;;3.20;;
5876;SDS011;2964;42.144;24.730;2022-09-03T12:54:46;2.90;;;2.80;;
5876;SDS011;2964;42.144;24.730;2022-09-03T12:57:19;3.08;;;2.92;;
5876;SDS011;2964;42.144;24.730;2022-09-03T12:59:50;3.00;;;2.90;;
5876;SDS011;2964;42.144;24.730;2022-09-03T13:02:22;5.97;;;3.47;;
5876;SDS011;2964;42.144;24.730;2022-09-03T13:04:54;3.50;;;3.20;;
5876;SDS011;2964;42.144;24.730;2022-09-03T13:07:26;3.70;;;3.47;;
5876;SDS011;2964;42.144;24.730;2022-09-03T13:09:59;3.95;;;3.20;;
5876;SDS011;2964;42.144;24.730;2022-09-03T13:12:32;3.83;;;3.60;;
5876;SDS011;2964;42.144;24.730;2022-09-03T13:15:08;3.83;;;3.53;;
5876;SDS011;2964;42.144;24.730;2022-09-03T13:20:42;3.10;;;2.90;;
5876;SDS011;2964;42.144;24.730;2022-09-03T13:23:27;2.92;;;2.72;;
5876;SDS011;2964;42.144;24.730;2022-09-03T13:26:08;3.15;;;2.90;;
5876;SDS011;2964;42.144;24.730;2022-09-03T13:28:47;3.45;;;2.50;;
5876;SDS011;2964;42.144;24.730;2022-09-03T13:31:26;3.78;;;3.47;;
5876;SDS011;2964;42.144;24.730;2022-09-03T13:33:57;2.75;;;2.65;;
5876;SDS011;2964;42.144;24.730;2022-09-03T13:36:29;3.08;;;2.88;;
5876;SDS011;2964;42.144;24.730;2022-09-03T13:39:08;3.38;;;3.17;;
5876;SDS011;2964;42.144;24.730;2022-09-03T13:41:45;3.13;;;2.85;;
5876;SDS011;2964;42.144;24.730;2022-09-03T13:44:18;3.45;;;3.17;;
5876;SDS011;2964;42.144;24.730;2022-09-03T13:46:52;2.90;;;2.80;;
5876;SDS011;2964;42.144;24.730;2022-09-03T13:49:27;4.85;;;2.90;;
5876;SDS011;2964;42.144;24.730;2022-09-03T13:52:20;2.35;;;2.15;;
5876;SDS011;2964;42.144;24.730;2022-09-03T13:54:54;2.67;;;2.58;;
5876;SDS011;2964;42.144;24.730;2022-09-03T13:57:29;4.60;;;2.95;;
5876;SDS011;2964;42.144;24.730;2022-09-03T14:00:04;3.33;;;3.08;;
5876;SDS011;2964;42.144;24.730;2022-09-03T14:02:36;2.95;;;2.85;;
5876;SDS011;2964;42.144;24.730;2022-09-03T14:05:18;2.63;;;2.53;;
5876;SDS011;2964;42.144;24.730;2022-09-03T14:08:00;2.95;;;2.85;;
5876;SDS011;2964;42.144;24.730;2022-09-03T14:10:49;3.83;;;3.47;;
5876;SDS011;2964;42.144;24.730;2022-09-03T14:13:23;2.75;;;2.55;;
5876;SDS011;2964;42.144;24.730;2022-09-03T14:16:03;3.08;;;2.85;;
5876;SDS011;2964;42.144;24.730;2022-09-03T14:18:36;4.25;;;2.70;;
5876;SDS011;2964;42.144;24.730;2022-09-03T14:21:10;2.20;;;2.10;;
5876;SDS011;2964;42.144;24.730;2022-09-03T14:23:45;2.92;;;2.72;;
5876;SDS011;2964;42.144;24.730;2022-09-03T14:26:17;2.38;;;2.20;;
5876;SDS011;2964;42.144;24.730;2022-09-03T14:28:46;7.57;;;2.90;;
5876;SDS011;2964;42.144;24.730;2022-09-03T14:31:17;3.45;;;3.33;;
5876;SDS011;2964;42.144;24.730;2022-09-03T14:33:54;4.30;;;3.17;;
5876;SDS011;2964;42.144;24.730;2022-09-03T14:36:29;3.22;;;3.00;;
5876;SDS011;2964;42.144;24.730;2022-09-03T14:39:16;2.95;;;2.85;;
5876;SDS011;2964;42.144;24.730;2022-09-03T14:42:00;3.45;;;3.25;;
5876;SDS011;2964;42.144;24.730;2022-09-03T14:45:01;3.85;;;3.55;;
5876;SDS011;2964;42.144;24.730;2022-09-03T14:47:43;4.55;;;4.15;;
5876;SDS011;2964;42.144;24.730;2022-09-03T14:50:23;3.70;;;3.50;;
5876;SDS011;2964;42.144;24.730;2022-09-03T14:56:00;3.15;;;2.95;;
5876;SDS011;2964;42.144;24.730;2022-09-03T14:58:42;3.20;;;3.10;;
5876;SDS011;2964;42.144;24.730;2022-09-03T15:01:24;2.88;;;2.78;;
5876;SDS011;2964;42.144;24.730;2022-09-03T15:04:07;3.42;;;3.17;;
5876;SDS011;2964;42.144;24.730;2022-09-03T15:06:59;2.67;;;2.58;;
5876;SDS011;2964;42.144;24.730;2022-09-03T15:09:37;3.90;;;3.70;;
5876;SDS011;2964;42.144;24.730;2022-09-03T15:12:15;3.30;;;3.00;;
5876;SDS011;2964;42.144;24.730;2022-09-03T15:14:45;2.60;;;2.50;;
5876;SDS011;2964;42.144;24.730;2022-09-03T15:17:34;3.13;;;2.85;;
5876;SDS011;2964;42.144;24.730;2022-09-03T15:20:22;3.60;;;2.80;;
5876;SDS011;2964;42.144;24.730;2022-09-03T15:23:10;3.05;;;2.88;;
5876;SDS011;2964;42.144;24.730;2022-09-03T15:26:09;3.60;;;3.38;;
5876;SDS011;2964;42.144;24.730;2022-09-03T15:28:58;3.47;;;3.28;;
5876;SDS011;2964;42.144;24.730;2022-09-03T15:31:37;6.28;;;3.92;;
5876;SDS011;2964;42.144;24.730;2022-09-03T15:34:14;2.60;;;2.50;;
5876;SDS011;2964;42.144;24.730;2022-09-03T15:36:55;3.03;;;2.92;;
5876;SDS011;2964;42.144;24.730;2022-09-03T15:39:29;3.15;;;2.78;;
5876;SDS011;2964;42.144;24.730;2022-09-03T15:42:00;3.28;;;3.15;;
5876;SDS011;2964;42.144;24.730;2022-09-03T15:44:35;3.03;;;2.88;;
5876;SDS011;2964;42.144;24.730;2022-09-03T15:47:11;3.28;;;2.97;;
5876;SDS011;2964;42.144;24.730;2022-09-03T15:49:53;2.90;;;2.70;;